Time;durP1;ratioP1;P1;durP2;ratioP2;P2;SDS_P1;SDS_P2;PMS_P1;PMS_P2;Temp;Humidity;BMP_temperature;BMP_pressure;BME280_temperature;BME280_humidity;BME280_pressure;Samples;Min_cycle;Max_cycle;Signal;HPM_P1;HPM_P2
2023/07/19 00:00:12;;;;;;;1999.90;999.90;;;;;;;27.89;40.81;101513.56;5091010;28;20016;-72
2023/07/19 00:02:38;;;;;;;1999.90;999.90;;;;;;;28.09;40.45;101512.13;5091081;28;20046;-72
2023/07/19 00:05:04;;;;;;;1999.90;999.90;;;;;;;28.14;40.69;101514.47;5090867;28;20047;-72
2023/07/19 00:07:29;;;;;;;1999.90;999.90;;;;;;;28.18;40.63;101521.34;5089726;28;20444;-72
2023/07/19 00:09:54;;;;;;;1999.90;999.90;;;;;;;28.18;40.66;101513.28;5090261;28;20106;-72
2023/07/19 00:12:20;;;;;;;1999.90;999.90;;;;;;;28.30;40.89;101516.03;5090462;28;20465;-71
2023/07/19 00:14:45;;;;;;;1999.90;999.90;;;;;;;28.30;40.53;101513.34;5089585;28;20027;-73
2023/07/19 00:17:11;;;;;;;1999.90;999.90;;;;;;;28.33;40.58;101513.97;5090484;28;20399;-72
2023/07/19 00:19:36;;;;;;;1999.90;999.90;;;;;;;28.24;40.68;101507.44;5090537;28;20023;-71
2023/07/19 00:22:02;;;;;;;1999.90;999.90;;;;;;;28.33;40.42;101513.09;5089831;28;20034;-72
2023/07/19 00:24:27;;;;;;;1999.90;999.90;;;;;;;28.36;40.57;101496.75;5090880;28;20480;-72
2023/07/19 00:26:53;;;;;;;1999.90;999.90;;;;;;;28.40;40.41;101498.25;5089853;28;20028;-72
2023/07/19 00:29:19;;;;;;;1999.90;999.90;;;;;;;28.47;40.03;101485.19;5089948;28;20050;-72
2023/07/19 00:31:44;;;;;;;1999.90;999.90;;;;;;;28.59;39.80;101498.56;5089725;28;20535;-72
2023/07/19 00:34:09;;;;;;;1999.90;999.90;;;;;;;28.57;40.16;101496.97;5090315;28;20034;-72
2023/07/19 00:36:35;;;;;;;1999.90;999.90;;;;;;;28.64;39.88;101489.31;5088741;28;20111;-72
2023/07/19 00:39:01;;;;;;;1999.90;999.90;;;;;;;28.71;39.91;101485.19;5090354;28;20042;-72
2023/07/19 00:41:26;;;;;;;1999.90;999.90;;;;;;;28.77;39.85;101485.56;5090031;28;20476;-72
2023/07/19 00:43:51;;;;;;;1999.90;999.90;;;;;;;28.68;39.66;101491.63;5089357;28;20028;-72
2023/07/19 00:46:19;;;;;;;1999.90;999.90;;;;;;;28.58;40.36;101475.31;5090246;28;20028;-72
2023/07/19 00:48:45;;;;;;;1999.90;999.90;;;;;;;28.61;39.93;101480.47;5089885;28;20023;-72
2023/07/19 00:51:10;;;;;;;1999.90;999.90;;;;;;;28.70;40.06;101480.75;5089534;28;20096;-72
2023/07/19 00:53:38;;;;;;;1999.90;999.90;;;;;;;28.79;39.65;101482.75;5089169;28;20066;-71
2023/07/19 00:56:04;;;;;;;1999.90;999.90;;;;;;;28.85;39.74;101481.41;5079744;28;20155;-72
2023/07/19 00:58:31;;;;;;;1999.90;999.90;;;;;;;28.84;39.44;101480.56;5052876;28;20115;-72
2023/07/19 01:00:57;;;;;;;1999.90;999.90;;;;;;;28.69;39.71;101474.53;5052436;28;20024;-72
2023/07/19 01:03:22;;;;;;;1999.90;999.90;;;;;;;28.50;39.85;101480.44;5052932;28;20061;-72
2023/07/19 01:05:48;;;;;;;1999.90;999.90;;;;;;;28.72;39.94;101474.28;5051713;28;20024;-72
2023/07/19 01:08:14;;;;;;;1999.90;999.90;;;;;;;28.90;39.78;101474.69;5052923;28;20032;-72
2023/07/19 01:10:40;;;;;;;1999.90;999.90;;;;;;;28.66;40.26;101476.59;5051887;28;20173;-71
2023/07/19 01:13:06;;;;;;;1999.90;999.90;;;;;;;29.06;39.48;101473.53;5052670;28;20056;-72
2023/07/19 01:15:32;;;;;;;1999.90;999.90;;;;;;;28.79;40.12;101476.53;5052921;28;20039;-72
2023/07/19 01:17:58;;;;;;;1999.90;999.90;;;;;;;28.74;40.15;101468.78;5069567;28;20028;-72
2023/07/19 01:20:23;;;;;;;1999.90;999.90;;;;;;;28.65;40.59;101464.16;5052401;28;20051;-72
2023/07/19 01:22:49;;;;;;;1999.90;999.90;;;;;;;28.91;39.72;101465.66;5052038;28;20032;-72
2023/07/19 01:25:14;;;;;;;1999.90;999.90;;;;;;;28.71;40.42;101464.50;5051890;28;20024;-72
2023/07/19 01:27:40;;;;;;;1999.90;999.90;;;;;;;29.16;39.21;101454.81;5052242;28;20028;-72
2023/07/19 01:30:07;;;;;;;1999.90;999.90;;;;;;;28.79;40.06;101460.38;5052693;28;20509;-72
2023/07/19 01:32:32;;;;;;;1999.90;999.90;;;;;;;28.80;40.03;101462.97;5051355;28;20024;-72
2023/07/19 01:34:58;;;;;;;1999.90;999.90;;;;;;;28.75;39.78;101459.75;5052156;28;20098;-72
2023/07/19 01:37:24;;;;;;;1999.90;999.90;;;;;;;28.91;39.72;101471.03;5052607;28;20115;-72
2023/07/19 01:39:49;;;;;;;1999.90;999.90;;;;;;;28.66;39.99;101457.78;5051471;28;20492;-72
2023/07/19 01:42:16;;;;;;;1999.90;999.90;;;;;;;28.82;39.82;101455.59;5052573;28;20036;-71
2023/07/19 01:44:42;;;;;;;1999.90;999.90;;;;;;;28.68;40.21;101458.53;5052370;28;20060;-72
2023/07/19 01:47:07;;;;;;;1999.90;999.90;;;;;;;28.53;40.16;101461.38;5069691;28;20055;-72
2023/07/19 01:49:38;;;;;;;1999.90;999.90;;;;;;;28.51;40.57;101467.84;5070001;28;20522;-72
2023/07/19 01:52:04;;;;;;;1999.90;999.90;;;;;;;28.51;40.47;101470.53;5052157;28;20059;-72
2023/07/19 01:54:29;;;;;;;1999.90;999.90;;;;;;;28.46;40.43;101470.88;5051829;28;20063;-72
2023/07/19 01:56:55;;;;;;;1999.90;999.90;;;;;;;27.87;41.30;101459.09;5084137;28;20496;-72
2023/07/19 01:59:20;;;;;;;1999.90;999.90;;;;;;;28.01;41.19;101459.94;5089129;28;20032;-72
2023/07/19 02:01:46;;;;;;;1999.90;999.90;;;;;;;27.21;42.89;101462.00;5089118;28;20031;-72
2023/07/19 02:04:11;;;;;;;1999.90;999.90;;;;;;;27.89;41.75;101451.78;5089330;28;20089;-72
2023/07/19 02:06:36;;;;;;;1999.90;999.90;;;;;;;27.88;41.20;101460.81;5088642;28;20020;-71
2023/07/19 02:09:02;;;;;;;1999.90;999.90;;;;;;;28.40;40.03;101474.06;5088441;28;20436;-72
2023/07/19 02:11:27;;;;;;;1999.90;999.90;;;;;;;28.31;40.75;101461.31;5088913;28;20095;-71
2023/07/19 02:13:53;;;;;;;1999.90;999.90;;;;;;;28.51;40.06;101449.91;5089002;28;20397;-71
2023/07/19 02:16:18;;;;;;;1999.90;999.90;;;;;;;28.29;40.87;101452.50;5088799;28;20028;-71
2023/07/19 02:18:43;;;;;;;1999.90;999.90;;;;;;;28.40;41.04;101457.94;5088896;28;20088;-71
2023/07/19 02:21:09;;;;;;;1999.90;999.90;;;;;;;28.45;40.63;101458.41;5089410;28;20089;-71
2023/07/19 02:23:35;;;;;;;1999.90;999.90;;;;;;;28.64;39.97;101451.66;5089730;28;20486;-71
2023/07/19 02:26:00;;;;;;;1999.90;999.90;;;;;;;28.67;39.70;101446.03;5089969;28;20055;-71
2023/07/19 02:28:26;;;;;;;1999.90;999.90;;;;;;;28.79;39.81;101434.34;5092260;28;20034;-71
2023/07/19 02:30:51;;;;;;;1999.90;999.90;;;;;;;28.64;40.57;101435.53;5092248;28;20040;-71
2023/07/19 02:33:17;;;;;;;1999.90;999.90;;;;;;;28.58;40.34;101440.38;5092954;28;20537;-71
2023/07/19 02:35:42;;;;;;;1999.90;999.90;;;;;;;28.60;39.94;101435.75;5091718;28;20024;-70
2023/07/19 02:38:09;;;;;;;1999.90;999.90;;;;;;;28.53;40.28;101445.25;5093020;28;20031;-71
2023/07/19 02:40:35;;;;;;;1999.90;999.90;;;;;;;27.93;41.93;101442.53;5092231;28;20403;-70
2023/07/19 02:43:00;;;;;;;1999.90;999.90;;;;;;;27.85;42.41;101444.06;5090915;28;20024;-71
2023/07/19 02:45:26;;;;;;;1999.90;999.90;;;;;;;25.18;48.21;101455.66;5090470;28;20032;-71
2023/07/19 02:47:51;;;;;;;1999.90;999.90;;;;;;;25.97;46.33;101441.81;5089839;28;20016;-71
2023/07/19 02:50:20;;;;;;;1999.90;999.90;;;;;;;25.84;45.69;101442.59;5087871;28;20561;-71
2023/07/19 02:52:46;;;;;;;1999.90;999.90;;;;;;;26.48;44.28;101441.97;5087990;28;20024;-70
2023/07/19 02:55:12;;;;;;;1999.90;999.90;;;;;;;26.85;42.94;101436.78;5088596;28;20048;-71
2023/07/19 02:57:38;;;;;;;1999.90;999.90;;;;;;;27.19;43.37;101442.47;5088651;28;20150;-70
2023/07/19 03:00:04;;;;;;;1999.90;999.90;;;;;;;27.11;43.27;101439.47;5089437;28;20384;-70
2023/07/19 03:02:30;;;;;;;1999.90;999.90;;;;;;;26.42;44.22;101447.75;5092030;28;20024;-70
2023/07/19 03:04:56;;;;;;;1999.90;999.90;;;;;;;26.17;45.08;101449.41;5091243;28;20723;-71
2023/07/19 03:07:23;;;;;;;1999.90;999.90;;;;;;;26.12;44.81;101446.16;5093305;28;20016;-71
2023/07/19 03:09:49;;;;;;;1999.90;999.90;;;;;;;26.42;43.92;101442.41;5091366;28;20016;-71
2023/07/19 03:12:14;;;;;;;1999.90;999.90;;;;;;;26.47;43.62;101429.53;5091005;28;20484;-71
2023/07/19 03:14:40;;;;;;;1999.90;999.90;;;;;;;27.18;42.89;101435.38;5091617;28;20024;-71
2023/07/19 03:17:06;;;;;;;1999.90;999.90;;;;;;;27.25;42.80;101436.66;5092008;28;20039;-71
2023/07/19 03:19:31;;;;;;;1999.90;999.90;;;;;;;27.20;43.51;101436.16;5090908;28;20024;-71
2023/07/19 03:21:56;;;;;;;1999.90;999.90;;;;;;;27.54;42.79;101441.78;5091246;28;20020;-71
2023/07/19 03:24:22;;;;;;;1999.90;999.90;;;;;;;27.63;42.50;101439.41;5090943;28;20024;-71
2023/07/19 03:26:47;;;;;;;1999.90;999.90;;;;;;;27.43;43.02;101433.66;5091394;28;20601;-71
2023/07/19 03:29:13;;;;;;;1999.90;999.90;;;;;;;27.31;42.67;101437.19;5091375;28;20365;-71
2023/07/19 03:31:38;;;;;;;1999.90;999.90;;;;;;;27.29;42.80;101437.31;5090123;28;20038;-71
2023/07/19 03:34:03;;;;;;;1999.90;999.90;;;;;;;27.47;43.08;101427.09;5091160;28;20035;-71
2023/07/19 03:36:29;;;;;;;1999.90;999.90;;;;;;;27.50;42.95;101426.03;5091620;28;20051;-72
2023/07/19 03:38:54;;;;;;;1999.90;999.90;;;;;;;27.50;43.44;101428.72;5090155;28;20032;-71
2023/07/19 03:41:20;;;;;;;1999.90;999.90;;;;;;;27.50;42.78;101418.81;5092562;28;20476;-72
2023/07/19 03:43:45;;;;;;;1999.90;999.90;;;;;;;27.52;43.18;101422.28;5090835;28;20082;-72
2023/07/19 03:46:11;;;;;;;1999.90;999.90;;;;;;;27.53;43.18;101424.00;5090869;28;20035;-72
2023/07/19 03:48:37;;;;;;;1999.90;999.90;;;;;;;27.50;43.32;101418.81;5090980;28;20065;-72
2023/07/19 03:51:03;;;;;;;1999.90;999.90;;;;;;;27.56;42.68;101421.06;5092444;28;20034;-72
2023/07/19 03:53:29;;;;;;;1999.90;999.90;;;;;;;27.59;42.04;101428.91;5090750;28;20553;-72
2023/07/19 03:55:56;;;;;;;1999.90;999.90;;;;;;;27.52;42.81;101422.28;5090123;28;20055;-73
2023/07/19 03:58:23;;;;;;;1999.90;999.90;;;;;;;27.59;42.84;101422.69;5091232;28;20036;-72
2023/07/19 04:00:49;;;;;;;1999.90;999.90;;;;;;;27.52;42.97;101422.28;5091015;28;20479;-72
2023/07/19 04:03:14;;;;;;;1999.90;999.90;;;;;;;27.44;42.91;101424.66;5092118;28;20081;-73
2023/07/19 04:05:40;;;;;;;1999.90;999.90;;;;;;;27.47;42.65;101429.78;5090424;28;20055;-72
2023/07/19 04:08:05;;;;;;;1999.90;999.90;;;;;;;27.48;42.62;101430.63;5090456;28;20114;-73
2023/07/19 04:10:30;;;;;;;1999.90;999.90;;;;;;;27.19;43.90;101429.06;5090862;28;20034;-72
2023/07/19 04:12:56;;;;;;;1999.90;999.90;;;;;;;27.25;43.96;101431.28;5090955;28;20073;-73
2023/07/19 04:15:21;;;;;;;1999.90;999.90;;;;;;;26.99;43.96;101429.63;5090321;28;20031;-73
2023/07/19 04:17:46;;;;;;;1999.90;999.90;;;;;;;27.12;43.34;101430.47;5090503;28;20027;-73
2023/07/19 04:20:12;;;;;;;1999.90;999.90;;;;;;;26.51;44.23;101436.41;5090737;28;20065;-72
2023/07/19 04:22:37;;;;;;;1999.90;999.90;;;;;;;27.16;43.39;101426.59;5089704;28;20020;-72
2023/07/19 04:25:03;;;;;;;1999.90;999.90;;;;;;;27.18;43.46;101435.38;5091756;28;20055;-73
2023/07/19 04:27:29;;;;;;;1999.90;999.90;;;;;;;27.07;43.94;101427.25;5091937;28;20024;-72
2023/07/19 04:29:55;;;;;;;1999.90;999.90;;;;;;;27.03;43.53;101421.22;5089566;28;20032;-71
2023/07/19 04:32:20;;;;;;;1999.90;999.90;;;;;;;27.18;43.58;101423.81;5090594;28;20503;-72
2023/07/19 04:34:45;;;;;;;1999.90;999.90;;;;;;;27.29;43.50;101417.69;5089353;28;20019;-73
2023/07/19 04:37:11;;;;;;;1999.90;999.90;;;;;;;27.27;43.66;101423.13;5090870;28;20483;-72
2023/07/19 04:39:36;;;;;;;1999.90;999.90;;;;;;;27.20;44.12;101428.09;5091200;28;20085;-72
2023/07/19 04:42:02;;;;;;;1999.90;999.90;;;;;;;27.14;44.15;101433.88;5089863;28;20388;-72
2023/07/19 04:44:28;;;;;;;1999.90;999.90;;;;;;;27.21;44.09;101440.53;5090462;28;20073;-73
2023/07/19 04:46:53;;;;;;;1999.90;999.90;;;;;;;27.26;43.97;101427.66;5089812;28;20036;-73
2023/07/19 04:49:19;;;;;;;1999.90;999.90;;;;;;;27.29;43.34;101426.56;5089299;28;20472;-73
2023/07/19 04:51:44;;;;;;;1999.90;999.90;;;;;;;27.27;43.76;101428.50;5089680;28;20020;-73
2023/07/19 04:54:10;;;;;;;1999.90;999.90;;;;;;;27.39;43.56;101426.81;5090524;28;20027;-72
2023/07/19 04:56:36;;;;;;;1999.90;999.90;;;;;;;27.30;44.42;101427.41;5089038;28;20043;-72
2023/07/19 04:59:01;;;;;;;1999.90;999.90;;;;;;;27.62;43.43;101432.34;5090313;28;20387;-72
2023/07/19 05:01:27;;;;;;;1999.90;999.90;;;;;;;27.75;43.23;101433.13;5090111;28;20438;-73
2023/07/19 05:03:53;;;;;;;1999.90;999.90;;;;;;;28.05;43.21;101434.56;5089125;28;20440;-73
2023/07/19 05:06:18;;;;;;;1999.90;999.90;;;;;;;27.76;43.49;101429.50;5089982;28;20536;-73
2023/07/19 05:08:44;;;;;;;1999.90;999.90;;;;;;;27.84;43.36;101432.47;5089426;28;20138;-73
2023/07/19 05:11:09;;;;;;;1999.90;999.90;;;;;;;28.08;42.53;101434.31;5089225;28;20499;-73
2023/07/19 05:13:35;;;;;;;1999.90;999.90;;;;;;;28.10;42.60;101433.25;5089428;28;20020;-72
2023/07/19 05:16:01;;;;;;;1999.90;999.90;;;;;;;27.84;43.12;101443.22;5089745;28;20395;-72
2023/07/19 05:18:26;;;;;;;1999.90;999.90;;;;;;;27.77;43.06;101439.28;5090448;28;20028;-72
2023/07/19 05:20:53;;;;;;;1999.90;999.90;;;;;;;28.27;42.20;101428.41;5089782;28;20126;-72
2023/07/19 05:23:19;;;;;;;1999.90;999.90;;;;;;;28.22;42.33;101435.97;5089331;28;20024;-72
2023/07/19 05:25:46;;;;;;;1999.90;999.90;;;;;;;28.16;43.00;101436.44;5088606;28;20519;-73
2023/07/19 05:28:12;;;;;;;1999.90;999.90;;;;;;;27.91;43.34;101428.34;5089531;28;20024;-73
2023/07/19 05:30:37;;;;;;;1999.90;999.90;;;;;;;28.27;42.43;101429.28;5090365;28;20024;-73
2023/07/19 05:33:03;;;;;;;1999.90;999.90;;;;;;;28.79;41.42;101428.13;5089979;28;20085;-73
2023/07/19 05:35:31;;;;;;;1999.90;999.90;;;;;;;28.73;41.54;101429.44;5089639;28;20480;-73
2023/07/19 05:37:56;;;;;;;1999.90;999.90;;;;;;;29.05;41.94;101432.28;5088370;28;20066;-73
2023/07/19 05:40:22;;;;;;;1999.90;999.90;;;;;;;29.13;41.38;101436.19;5089576;28;20115;-74
2023/07/19 05:42:47;;;;;;;1999.90;999.90;;;;;;;29.18;41.27;101424.09;5088874;28;20032;-72
2023/07/19 05:45:12;;;;;;;1999.90;999.90;;;;;;;29.33;40.94;101431.94;5089937;28;20499;-72
2023/07/19 05:47:38;;;;;;;1999.90;999.90;;;;;;;29.08;41.98;101428.50;5089106;28;20027;-71
2023/07/19 05:50:04;;;;;;;1999.90;999.90;;;;;;;29.49;40.14;101427.03;5089237;28;20024;-72
2023/07/19 05:52:29;;;;;;;1999.90;999.90;;;;;;;28.86;40.82;101424.81;5089937;28;20039;-72
2023/07/19 05:54:55;;;;;;;1999.90;999.90;;;;;;;29.52;40.78;101425.94;5088272;28;20020;-72
2023/07/19 05:57:20;;;;;;;1999.90;999.90;;;;;;;29.11;40.29;101429.13;5052514;28;20043;-72
2023/07/19 05:59:46;;;;;;;1999.90;999.90;;;;;;;29.10;40.83;101431.94;5051181;28;20038;-72
2023/07/19 06:02:11;;;;;;;1999.90;999.90;;;;;;;29.05;40.46;101424.22;5052618;28;20020;-72
2023/07/19 06:04:37;;;;;;;1999.90;999.90;;;;;;;29.04;41.00;101427.03;5051873;28;20032;-73
2023/07/19 06:07:02;;;;;;;1999.90;999.90;;;;;;;29.05;40.60;101428.75;5051362;28;20048;-72
2023/07/19 06:09:28;;;;;;;1999.90;999.90;;;;;;;28.58;40.86;101426.94;5070223;28;20361;-73
2023/07/19 06:11:56;;;;;;;1999.90;999.90;;;;;;;29.48;40.43;101419.94;5051426;28;20147;-72
2023/07/19 06:14:23;;;;;;;1999.90;999.90;;;;;;;28.82;41.23;101417.09;5069426;28;20020;-73
2023/07/19 06:16:48;;;;;;;1999.90;999.90;;;;;;;27.41;43.28;101430.25;5051587;28;20169;-72
2023/07/19 06:19:16;;;;;;;1999.90;999.90;;;;;;;28.14;42.58;101427.63;5070132;28;20099;-73
2023/07/19 06:21:41;;;;;;;1999.90;999.90;;;;;;;28.22;42.38;101430.59;5069097;28;20029;-71
2023/07/19 06:24:07;;;;;;;1999.90;999.90;;;;;;;29.31;40.61;101425.84;5051899;28;20388;-72
2023/07/19 06:26:33;;;;;;;1999.90;999.90;;;;;;;29.15;41.13;101424.31;5070129;28;20440;-72
2023/07/19 06:29:01;;;;;;;1999.90;999.90;;;;;;;29.35;39.88;101430.00;5050085;28;20446;-72
2023/07/19 06:31:27;;;;;;;1999.90;999.90;;;;;;;29.65;39.90;101423.97;5069787;28;20488;-73
2023/07/19 06:33:52;;;;;;;1999.90;999.90;;;;;;;29.22;40.53;101427.38;5051535;28;20032;-73
2023/07/19 06:36:17;;;;;;;1999.90;999.90;;;;;;;29.14;40.00;101428.03;5054223;28;20039;-72
2023/07/19 06:38:43;;;;;;;1999.90;999.90;;;;;;;29.77;38.93;101428.34;5073187;28;20024;-72
2023/07/19 06:41:08;;;;;;;1999.90;999.90;;;;;;;31.01;37.55;101425.16;5055776;28;20032;-71
2023/07/19 06:43:37;;;;;;;1999.90;999.90;;;;;;;31.03;36.71;101434.03;5054886;28;20533;-73
2023/07/19 06:46:02;;;;;;;1999.90;999.90;;;;;;;31.15;36.84;101432.94;5055370;28;20028;-72
2023/07/19 06:48:28;;;;;;;1999.90;999.90;;;;;;;30.17;37.92;101426.88;5054856;28;20021;-72
2023/07/19 06:50:53;;;;;;;1999.90;999.90;;;;;;;29.28;40.12;101430.47;5054827;28;20390;-73
2023/07/19 06:53:19;;;;;;;1999.90;999.90;;;;;;;30.24;39.03;101430.75;5073116;28;20032;-73
2023/07/19 06:55:44;;;;;;;1999.90;999.90;;;;;;;30.57;37.12;101433.41;5071560;28;20116;-73
2023/07/19 06:58:10;;;;;;;1999.90;999.90;;;;;;;30.48;37.71;101434.25;5055274;28;20036;-73
2023/07/19 07:00:35;;;;;;;1999.90;999.90;;;;;;;31.68;36.52;101428.28;5054885;28;20066;-72
2023/07/19 07:03:00;;;;;;;1999.90;999.90;;;;;;;33.49;34.55;101428.44;5054913;28;20024;-73
2023/07/19 07:05:27;;;;;;;1999.90;999.90;;;;;;;32.96;32.96;101433.50;5055100;28;20570;-73
2023/07/19 07:07:52;;;;;;;1999.90;999.90;;;;;;;33.25;32.76;101434.41;5054719;28;20024;-72
2023/07/19 07:10:18;;;;;;;1999.90;999.90;;;;;;;33.39;32.29;101431.19;5054072;28;20464;-72
2023/07/19 07:12:43;;;;;;;1999.90;999.90;;;;;;;33.39;32.31;101438.47;5054406;28;20170;-72
2023/07/19 07:15:09;;;;;;;1999.90;999.90;;;;;;;34.61;31.60;101435.28;5054743;28;20032;-72
2023/07/19 07:17:34;;;;;;;1999.90;999.90;;;;;;;36.17;29.13;101439.63;5054118;28;20021;-72
2023/07/19 07:20:00;;;;;;;1999.90;999.90;;;;;;;36.98;27.43;101437.84;5072713;28;20080;-73
2023/07/19 07:22:25;;;;;;;1999.90;999.90;;;;;;;35.31;30.05;101438.88;5054605;28;20038;-73
2023/07/19 07:24:51;;;;;;;1999.90;999.90;;;;;;;33.17;30.84;101437.84;5071572;28;20032;-73
2023/07/19 07:27:16;;;;;;;1999.90;999.90;;;;;;;33.49;31.27;101441.97;5054282;28;20035;-70
2023/07/19 07:29:42;;;;;;;1999.90;999.90;;;;;;;34.60;30.39;101443.59;5054239;28;20024;-70
2023/07/19 07:32:10;;;;;;;1999.90;999.90;;;;;;;34.05;30.03;101439.22;5053633;28;20032;-70
2023/07/19 07:34:37;;;;;;;1999.90;999.90;;;;;;;33.78;30.54;101435.56;5053692;28;20462;-71
2023/07/19 07:37:02;;;;;;;1999.90;999.90;;;;;;;34.43;29.57;101429.03;5054323;28;20124;-71
2023/07/19 07:39:28;;;;;;;1999.90;999.90;;;;;;;35.43;28.30;101431.31;5053761;28;20107;-71
2023/07/19 07:41:53;;;;;;;1999.90;999.90;;;;;;;33.26;30.40;101431.56;5071777;28;20559;-71
2023/07/19 07:44:19;;;;;;;1999.90;999.90;;;;;;;32.40;31.98;101435.16;5054466;28;20135;-71
2023/07/19 07:46:46;;;;;;;1999.90;999.90;;;;;;;31.26;33.55;101432.00;5052875;28;20028;-70
2023/07/19 07:49:12;;;;;;;1999.90;999.90;;;;;;;30.69;35.57;101439.63;5054327;28;20125;-71
2023/07/19 07:51:37;;;;;;;1999.90;999.90;;;;;;;30.52;35.47;101436.53;5071039;28;20117;-71
2023/07/19 07:54:03;;;;;;;1999.90;999.90;;;;;;;29.29;37.77;101442.09;5054186;28;20476;-71
2023/07/19 07:56:28;;;;;;;1999.90;999.90;;;;;;;29.50;37.61;101439.53;5079313;28;20051;-71
2023/07/19 07:58:54;;;;;;;1999.90;999.90;;;;;;;29.20;38.05;101443.66;5090191;28;20040;-71
2023/07/19 08:01:19;;;;;;;1999.90;999.90;;;;;;;29.32;38.17;101436.47;5091350;28;20032;-71
2023/07/19 08:03:44;;;;;;;1999.90;999.90;;;;;;;28.46;39.50;101433.25;5090494;28;20089;-71
2023/07/19 08:06:10;;;;;;;1999.90;999.90;;;;;;;27.88;41.75;101439.31;5090565;28;20031;-71
2023/07/19 08:08:35;;;;;;;1999.90;999.90;;;;;;;27.92;42.04;101446.19;5091864;28;20103;-71
2023/07/19 08:11:05;;;;;;;1999.90;999.90;;;;;;;27.72;41.43;101433.38;5091174;28;20434;-71
2023/07/19 08:13:30;;;;;;;1999.90;999.90;;;;;;;27.99;40.43;101429.63;5091585;28;20035;-71
2023/07/19 08:15:56;;;;;;;1999.90;999.90;;;;;;;27.87;40.23;101429.53;5090562;28;20032;-70
2023/07/19 08:18:21;;;;;;;1999.90;999.90;;;;;;;30.36;36.86;101425.31;5092010;28;20031;-71
2023/07/19 08:20:47;;;;;;;1999.90;999.90;;;;;;;31.57;35.02;101416.59;5090976;28;20099;-71
2023/07/19 08:23:12;;;;;;;1999.90;999.90;;;;;;;32.37;34.05;101418.38;5090828;28;20100;-71
2023/07/19 08:25:38;;;;;;;1999.90;999.90;;;;;;;30.76;35.84;101427.28;5090124;28;20027;-71
2023/07/19 08:28:03;;;;;;;1999.90;999.90;;;;;;;29.68;36.87;101421.00;5089837;28;20130;-71
2023/07/19 08:30:29;;;;;;;1999.90;999.90;;;;;;;31.72;34.82;101427.00;5091588;28;20033;-71
2023/07/19 08:32:55;;;;;;;1999.90;999.90;;;;;;;30.95;34.21;101423.84;5091061;28;20066;-71
2023/07/19 08:35:21;;;;;;;1999.90;999.90;;;;;;;31.44;33.91;101421.38;5089737;28;20119;-71
2023/07/19 08:37:46;;;;;;;1999.90;999.90;;;;;;;30.98;34.47;101426.28;5089773;28;20154;-71
2023/07/19 08:40:14;;;;;;;1999.90;999.90;;;;;;;29.81;36.16;101423.53;5091455;28;20023;-71
2023/07/19 08:42:40;;;;;;;1999.90;999.90;;;;;;;30.19;35.43;101424.06;5090392;28;20040;-71
2023/07/19 08:45:07;;;;;;;1999.90;999.90;;;;;;;31.63;34.19;101426.00;5090167;28;20035;-71
2023/07/19 08:47:37;;;;;;;1999.90;999.90;;;;;;;32.27;33.01;101430.06;5091166;28;20118;-70
2023/07/19 08:50:07;;;;;;;1999.90;999.90;;;;;;;30.69;35.41;101420.72;5089341;28;20027;-71
2023/07/19 08:52:36;;;;;;;1999.90;999.90;;;;;;;30.98;35.23;101417.34;5090847;28;20039;-71
2023/07/19 08:55:02;;;;;;;1999.90;999.90;;;;;;;30.35;35.62;101434.38;5086890;28;20032;-71
2023/07/19 08:57:28;;;;;;;1999.90;999.90;;;;;;;30.86;35.28;101428.22;5052769;28;20024;-71
2023/07/19 08:59:54;;;;;;;1999.90;999.90;;;;;;;30.95;34.84;101427.44;5052211;28;20479;-71
2023/07/19 09:02:19;;;;;;;1999.90;999.90;;;;;;;32.16;34.05;101421.25;5070078;28;20024;-71
2023/07/19 09:05:08;;;;;;;1999.90;999.90;;;;;;;30.19;36.04;101424.91;5052278;28;20029;-71
2023/07/19 09:07:37;;;;;;;1999.90;999.90;;;;;;;32.28;33.11;101426.34;5052964;28;20028;-71
2023/07/19 09:10:08;;;;;;;1999.90;999.90;;;;;;;32.56;32.71;101418.34;5052085;28;20024;-71
2023/07/19 09:12:41;;;;;;;1999.90;999.90;;;;;;;32.85;31.27;101412.03;5070675;28;20025;-71
2023/07/19 09:15:08;;;;;;;1999.90;999.90;;;;;;;32.81;31.24;101424.16;5052462;28;20036;-71
2023/07/19 09:17:43;;;;;;;1999.90;999.90;;;;;;;32.36;32.37;101417.53;5051616;28;20031;-70
2023/07/19 09:20:10;;;;;;;1999.90;999.90;;;;;;;30.53;34.48;101422.06;5052577;28;20059;-71
2023/07/19 09:22:36;;;;;;;1999.90;999.90;;;;;;;29.73;36.37;101434.06;5052377;28;20042;-70
2023/07/19 09:25:03;;;;;;;1999.90;999.90;;;;;;;30.08;35.97;101425.78;5051742;28;20025;-71
2023/07/19 09:27:30;;;;;;;1999.90;999.90;;;;;;;29.34;37.39;101433.66;5052794;28;20444;-71
2023/07/19 09:29:56;;;;;;;1999.90;999.90;;;;;;;29.57;37.45;101431.81;5070053;28;20071;-71
2023/07/19 09:32:23;;;;;;;1999.90;999.90;;;;;;;30.10;37.26;101425.66;5070269;28;20447;-72
2023/07/19 09:34:52;;;;;;;1999.90;999.90;;;;;;;30.26;36.17;101426.09;5052139;28;20142;-72
2023/07/19 09:37:20;;;;;;;1999.90;999.90;;;;;;;30.13;35.80;101433.53;5051667;28;20029;-71
2023/07/19 09:39:46;;;;;;;1999.90;999.90;;;;;;;30.07;35.30;101432.16;5051826;28;20069;-72
2023/07/19 09:42:13;;;;;;;1999.90;999.90;;;;;;;30.20;35.89;101432.00;5070127;28;20150;-71
2023/07/19 09:44:39;;;;;;;1999.90;999.90;;;;;;;30.08;36.30;101433.88;5051222;28;20039;-72
2023/07/19 09:47:09;;;;;;;1999.90;999.90;;;;;;;30.27;36.52;101441.28;5052265;28;20025;-71
2023/07/19 09:49:36;;;;;;;1999.90;999.90;;;;;;;30.11;38.08;101438.16;5051915;28;20035;-72
2023/07/19 09:52:03;;;;;;;1999.90;999.90;;;;;;;29.32;39.69;101436.47;5051649;28;20411;-72
2023/07/19 09:54:31;;;;;;;1999.90;999.90;;;;;;;29.60;39.34;101435.09;5052482;28;20028;-72
2023/07/19 09:56:58;;;;;;;1999.90;999.90;;;;;;;28.60;42.01;101438.44;5084682;28;20052;-71
2023/07/19 09:59:39;;;;;;;1999.90;999.90;;;;;;;29.32;39.02;101435.59;5088395;28;20388;-71
2023/07/19 10:02:05;;;;;;;1999.90;999.90;;;;;;;28.70;40.27;101437.72;5089495;28;20027;-71
2023/07/19 10:04:38;;;;;;;1999.90;999.90;;;;;;;28.31;40.30;101439.81;5089145;28;20028;-72
2023/07/19 10:07:18;;;;;;;1999.90;999.90;;;;;;;28.94;39.79;101434.97;5088299;28;20020;-71
2023/07/19 10:09:45;;;;;;;1999.90;999.90;;;;;;;28.42;41.46;101434.47;5090227;28;20063;-72
2023/07/19 10:12:16;;;;;;;1999.90;999.90;;;;;;;28.83;41.17;101446.56;5092972;28;20021;-69
2023/07/19 10:15:02;;;;;;;1999.90;999.90;;;;;;;28.93;41.05;101436.81;5092730;28;20509;-71
2023/07/19 10:17:31;;;;;;;1999.90;999.90;;;;;;;29.49;39.09;101437.81;5094131;28;20028;-71
2023/07/19 10:20:06;;;;;;;1999.90;999.90;;;;;;;30.26;38.68;101436.03;5092149;28;20028;-71
2023/07/19 10:22:47;;;;;;;1999.90;999.90;;;;;;;30.32;38.39;101434.66;5092736;28;20027;-71
2023/07/19 10:25:46;;;;;;;1999.90;999.90;;;;;;;29.15;39.40;101445.84;5093158;28;20035;-71
2023/07/19 10:28:13;;;;;;;1999.90;999.90;;;;;;;28.63;40.58;101449.91;5092138;28;20081;-71
2023/07/19 10:30:42;;;;;;;1999.90;999.90;;;;;;;29.04;40.30;101443.16;5092222;28;20020;-72
2023/07/19 10:33:08;;;;;;;1999.90;999.90;;;;;;;29.95;38.31;101439.44;5092757;28;20020;-72
2023/07/19 10:35:37;;;;;;;1999.90;999.90;;;;;;;29.56;39.19;101448.94;5092001;28;20027;-72
2023/07/19 10:38:02;;;;;;;1999.90;999.90;;;;;;;29.96;38.42;101445.69;5092477;28;20024;-72
2023/07/19 10:40:28;;;;;;;1999.90;999.90;;;;;;;30.26;37.63;101436.03;5092047;28;20026;-72
2023/07/19 10:42:54;;;;;;;1999.90;999.90;;;;;;;30.62;37.61;101448.25;5091661;28;20027;-72